Time;durP1;ratioP1;P1;durP2;ratioP2;P2;SDS_P1;SDS_P2;PMS_P1;PMS_P2;Temp;Humidity;BMP_temperature;BMP_pressure;BME280_temperature;BME280_humidity;BME280_pressure;Samples;Min_cycle;Max_cycle;Signal;HPM_P1;HPM_P2
2021/03/10 00:01:58;;;;;;;;;;;;;;;;;;5040540;28;19936;-77
2021/03/10 00:04:24;;;;;;;;;;;;;;;;;;5039066;28;19928;-77
2021/03/10 00:06:51;;;;;;;;;;;;;;;;;;5039140;28;19928;-76
2021/03/10 00:09:18;;;;;;;;;;;;;;;;;;5036711;28;19921;-77
2021/03/10 00:11:44;;;;;;;;;;;;;;;;;;5036790;28;19921;-77
2021/03/10 00:14:11;;;;;;;;;;;;;;;;;;5036682;28;19928;-76
2021/03/10 00:16:38;;;;;;;;;;;;;;;;;;5038121;28;19975;-76
2021/03/10 00:19:04;;;;;;;;;;;;;;;;;;5020366;28;19921;-77
2021/03/10 00:21:31;;;;;;;;;;;;;;;;;;5036368;28;19921;-76
2021/03/10 00:23:57;;;;;;;;;;;;;;;;;;5049778;28;19943;-77
2021/03/10 00:26:25;;;;;;;;;;;;;;;;;;5044907;28;19921;-76
2021/03/10 00:28:53;;;;;;;;;;;;;;;;;;5049660;28;19921;-76
2021/03/10 00:31:41;;;;;;;;;;;;;;;;;;5044759;28;19921;-76
2021/03/10 00:34:09;;;;;;;;;;;;;;;;;;5044925;28;19921;-77
2021/03/10 00:36:38;;;;;;;;;;;;;;;;;;5027126;28;19924;-76
2021/03/10 00:39:05;;;;;;;;;;;;;;;;;;5044520;28;20298;-77
2021/03/10 00:41:34;;;;;;;;;;;;;;;;;;5043480;28;19921;-76
2021/03/10 00:44:00;;;;;;;;;;;;;;;;;;5040997;28;20406;-76
2021/03/10 00:46:27;;;;;;;;;;;;;;;;;;5040006;28;19951;-76
2021/03/10 00:48:53;;;;;;;;;;;;;;;;;;5039078;28;20405;-76
2021/03/10 00:51:20;;;;;;;;;;;;;;;;;;5038888;28;19921;-76
2021/03/10 00:53:47;;;;;;;;;;;;;;;;;;5040959;28;19921;-76
2021/03/10 00:56:13;;;;;;;;;;;;;;;;;;5038773;28;19921;-77
2021/03/10 00:58:40;;;;;;;;;;;;;;;;;;5038707;28;19992;-76
2021/03/10 01:01:06;;;;;;;;;;;;;;;;;;5038655;28;19905;-76
2021/03/10 01:03:36;;;;;;;;;;;;;;;;;;5021713;28;19921;-76
2021/03/10 01:06:05;;;;;;;;;;;;;;;;;;5038551;28;20299;-76
2021/03/10 01:08:31;;;;;;;;;;;;;;;;;;5038832;28;19967;-76
2021/03/10 01:10:58;;;;;;;;;;;;;;;;;;5038661;28;19921;-76
2021/03/10 01:16:06;;;;;;;;;;;;;;;;;;5041335;28;19921;-76
2021/03/10 01:18:33;;;;;;;;;;;;;;;;;;5027706;28;19925;-77
2021/03/10 01:21:03;;;;;;;;;;;;;;;;;;5041699;28;19921;-77
2021/03/10 01:23:35;;;;;;;;;;;;;;;;;;5042585;28;19921;-76
2021/03/10 01:29:01;;;;;;;;;;;;;;;;;;5145729;27;19924;-76
2021/03/10 01:31:31;;;;;;;;;;;;;;;;;;5140778;28;19966;-76
2021/03/10 01:33:58;;;;;;;;;;;;;;;;;;5140086;28;20358;-76
2021/03/10 01:36:26;;;;;;;;;;;;;;;;;;5138558;28;19924;-76
2021/03/10 01:38:53;;;;;;;;;;;;;;;;;;5140999;27;19923;-76
2021/03/10 01:41:20;;;;;;;;;;;;;;;;;;5133519;28;19923;-77
2021/03/10 01:43:46;;;;;;;;;;;;;;;;;;5134436;28;19953;-77
2021/03/10 01:46:13;;;;;;;;;;;;;;;;;;5132884;28;19923;-76
2021/03/10 01:48:40;;;;;;;;;;;;;;;;;;5133399;27;19930;-77
2021/03/10 01:51:06;;;;;;;;;;;;;;;;;;5132770;27;19931;-77
2021/03/10 01:53:33;;;;;;;;;;;;;;;;;;5132967;27;19930;-77
2021/03/10 01:55:59;;;;;;;;;;;;;;;;;;5132901;27;19931;-76
2021/03/10 01:58:26;;;;;;;;;;;;;;;;;;5132819;27;20254;-77
2021/03/10 02:00:53;;;;;;;;;;;;;;;;;;5132670;27;20387;-77
2021/03/10 02:03:19;;;;;;;;;;;;;;;;;;5132179;27;19968;-77
2021/03/10 02:05:46;;;;;;;;;;;;;;;;;;5133431;27;19930;-77
2021/03/10 02:08:13;;;;;;;;;;;;;;;;;;5133712;27;19969;-76
2021/03/10 02:10:40;;;;;;;;;;;;;;;;;;5135054;27;19970;-77
2021/03/10 02:13:07;;;;;;;;;;;;;;;;;;5133111;27;19930;-76
2021/03/10 02:15:33;;;;;;;;;;;;;;;;;;5134283;27;19931;-77
2021/03/10 02:18:00;;;;;;;;;;;;;;;;;;5133101;27;20429;-77
2021/03/10 02:20:26;;;;;;;;;;;;;;;;;;5133035;27;20361;-77
2021/03/10 02:22:53;;;;;;;;;;;;;;;;;;5132428;27;19923;-77
2021/03/10 02:25:19;;;;;;;;;;;;;;;;;;5132690;27;19925;-77
2021/03/10 02:27:46;;;;;;;;;;;;;;;;;;5142477;27;20350;-77
2021/03/10 02:30:13;;;;;;;;;;;;;;;;;;5152982;27;19976;-76
2021/03/10 02:32:39;;;;;;;;;;;;;;;;;;5152940;27;19923;-77
2021/03/10 02:35:06;;;;;;;;;;;;;;;;;;5154735;27;19923;-77
2021/03/10 02:37:32;;;;;;;;;;;;;;;;;;5156047;27;19924;-77
2021/03/10 02:39:59;;;;;;;;;;;;;;;;;;5142662;27;19924;-76
2021/03/10 02:42:26;;;;;;;;;;;;;;;;;;5141017;27;19987;-77
2021/03/10 02:44:52;;;;;;;;;;;;;;;;;;5140711;27;20292;-77
2021/03/10 02:47:19;;;;;;;;;;;;;;;;;;5121394;27;20285;-77
2021/03/10 02:49:46;;;;;;;;;;;;;;;;;;5122108;27;19929;-76
2021/03/10 02:52:13;;;;;;;;;;;;;;;;;;5140107;27;19927;-76
2021/03/10 02:54:40;;;;;;;;;;;;;;;;;;5140166;27;19975;-77
2021/03/10 02:57:07;;;;;;;;;;;;;;;;;;5139415;27;19923;-77
2021/03/10 02:59:33;;;;;;;;;;;;;;;;;;5138388;27;19993;-76
2021/03/10 03:02:00;;;;;;;;;;;;;;;;;;5138834;27;19924;-77
2021/03/10 03:04:27;;;;;;;;;;;;;;;;;;5138893;27;19981;-77
2021/03/10 03:06:54;;;;;;;;;;;;;;;;;;5138259;27;20369;-77
2021/03/10 03:09:20;;;;;;;;;;;;;;;;;;5138396;27;19946;-77
2021/03/10 03:11:47;;;;;;;;;;;;;;;;;;5138374;27;19923;-77
2021/03/10 03:14:14;;;;;;;;;;;;;;;;;;5138624;27;19924;-77
2021/03/10 03:16:40;;;;;;;;;;;;;;;;;;5137991;27;19923;-77
2021/03/10 03:19:07;;;;;;;;;;;;;;;;;;5138480;27;19923;-77
2021/03/10 03:21:33;;;;;;;;;;;;;;;;;;5138252;27;19923;-76
2021/03/10 03:24:00;;;;;;;;;;;;;;;;;;5138829;27;20270;-77
2021/03/10 03:26:27;;;;;;;;;;;;;;;;;;5137774;27;20388;-76
2021/03/10 03:28:53;;;;;;;;;;;;;;;;;;5137715;27;19930;-77
2021/03/10 03:31:20;;;;;;;;;;;;;;;;;;5144737;27;20387;-75
2021/03/10 03:33:46;;;;;;;;;;;;;;;;;;5141939;27;20364;-77
2021/03/10 03:36:13;;;;;;;;;;;;;;;;;;5139138;27;20378;-77
2021/03/10 03:38:40;;;;;;;;;;;;;;;;;;5138270;27;19968;-77
2021/03/10 03:41:06;;;;;;;;;;;;;;;;;;5138682;27;19923;-77
2021/03/10 03:43:33;;;;;;;;;;;;;;;;;;5138088;27;19923;-77
2021/03/10 03:45:59;;;;;;;;;;;;;;;;;;5138187;27;19927;-77
2021/03/10 03:48:26;;;;;;;;;;;;;;;;;;5138068;27;19923;-77
2021/03/10 03:50:54;;;;;;;;;;;;;;;;;;5136794;27;19923;-77
2021/03/10 03:53:20;;;;;;;;;;;;;;;;;;5137815;27;19924;-77
2021/03/10 03:55:47;;;;;;;;;;;;;;;;;;5138873;27;19924;-76
2021/03/10 03:58:14;;;;;;;;;;;;;;;;;;5118890;27;19924;-77
2021/03/10 04:00:40;;;;;;;;;;;;;;;;;;5138387;27;19924;-77
2021/03/10 04:03:09;;;;;;;;;;;;;;;;;;5140285;27;19923;-77
2021/03/10 04:05:42;;;;;;;;;;;;;;;;;;5138740;27;19962;-77
2021/03/10 04:08:09;;;;;;;;;;;;;;;;;;5136873;27;19923;-76
2021/03/10 04:10:35;;;;;;;;;;;;;;;;;;5137284;27;19923;-77
2021/03/10 04:13:02;;;;;;;;;;;;;;;;;;5137510;27;19934;-76
2021/03/10 04:15:29;;;;;;;;;;;;;;;;;;5136913;27;19968;-77
2021/03/10 04:17:57;;;;;;;;;;;;;;;;;;5137060;27;19923;-77
2021/03/10 04:20:23;;;;;;;;;;;;;;;;;;5137779;27;20005;-77
2021/03/10 04:22:50;;;;;;;;;;;;;;;;;;5136905;27;19924;-77
2021/03/10 04:25:16;;;;;;;;;;;;;;;;;;5137528;27;19924;-77
2021/03/10 04:27:43;;;;;;;;;;;;;;;;;;5136724;27;19924;-77
2021/03/10 04:30:09;;;;;;;;;;;;;;;;;;5136698;27;19924;-77
2021/03/10 04:32:36;;;;;;;;;;;;;;;;;;5137890;27;19984;-77
2021/03/10 04:35:03;;;;;;;;;;;;;;;;;;5137671;27;20262;-77
2021/03/10 04:37:29;;;;;;;;;;;;;;;;;;5136145;27;20482;-76
2021/03/10 04:39:56;;;;;;;;;;;;;;;;;;5136333;27;19924;-77
2021/03/10 04:42:23;;;;;;;;;;;;;;;;;;5136702;27;19927;-77
2021/03/10 04:44:49;;;;;;;;;;;;;;;;;;5136645;27;19934;-77
2021/03/10 04:47:16;;;;;;;;;;;;;;;;;;5136116;27;19923;-77
2021/03/10 04:49:42;;;;;;;;;;;;;;;;;;5137376;27;19928;-77
2021/03/10 04:52:09;;;;;;;;;;;;;;;;;;5137193;27;20308;-77
2021/03/10 04:54:36;;;;;;;;;;;;;;;;;;5135929;27;20008;-77
2021/03/10 04:57:02;;;;;;;;;;;;;;;;;;5140524;27;20365;-76
2021/03/10 04:59:29;;;;;;;;;;;;;;;;;;5136693;27;19946;-76
2021/03/10 05:01:55;;;;;;;;;;;;;;;;;;5135798;27;20376;-77
2021/03/10 05:04:22;;;;;;;;;;;;;;;;;;5117830;27;19927;-76
2021/03/10 05:06:49;;;;;;;;;;;;;;;;;;5141850;27;19933;-77
2021/03/10 05:09:15;;;;;;;;;;;;;;;;;;5136480;27;19930;-76
2021/03/10 05:11:42;;;;;;;;;;;;;;;;;;5136379;27;19927;-77
2021/03/10 05:14:09;;;;;;;;;;;;;;;;;;5136382;27;19923;-77
2021/03/10 05:16:35;;;;;;;;;;;;;;;;;;5117764;27;19972;-76
2021/03/10 05:19:02;;;;;;;;;;;;;;;;;;5135419;27;19934;-77
2021/03/10 05:21:29;;;;;;;;;;;;;;;;;;5137428;27;19924;-76
2021/03/10 05:23:55;;;;;;;;;;;;;;;;;;5138688;27;19991;-77
2021/03/10 05:26:22;;;;;;;;;;;;;;;;;;5135780;28;20087;-77
2021/03/10 05:28:49;;;;;;;;;;;;;;;;;;5136319;28;19927;-77
2021/03/10 05:31:15;;;;;;;;;;;;;;;;;;5139307;28;19923;-77
2021/03/10 05:33:42;;;;;;;;;;;;;;;;;;5136274;28;19935;-77
2021/03/10 05:36:08;;;;;;;;;;;;;;;;;;5136481;28;19924;-77
2021/03/10 05:38:35;;;;;;;;;;;;;;;;;;5136888;28;19931;-77
2021/03/10 05:41:02;;;;;;;;;;;;;;;;;;5137367;28;19930;-77
2021/03/10 05:43:28;;;;;;;;;;;;;;;;;;5137251;28;20311;-75
2021/03/10 05:45:55;;;;;;;;;;;;;;;;;;5134977;28;20297;-74
2021/03/10 05:48:21;;;;;;;;;;;;;;;;;;5135010;28;19931;-75
2021/03/10 05:50:48;;;;;;;;;;;;;;;;;;5135378;28;19923;-75
2021/03/10 05:53:15;;;;;;;;;;;;;;;;;;5135263;28;19923;-75
2021/03/10 05:55:41;;;;;;;;;;;;;;;;;;5138133;28;19930;-74
2021/03/10 05:58:08;;;;;;;;;;;;;;;;;;5135487;28;19923;-75
2021/03/10 06:00:35;;;;;;;;;;;;;;;;;;5134948;28;19931;-75
2021/03/10 06:03:01;;;;;;;;;;;;;;;;;;5134932;28;19923;-75
2021/03/10 06:05:28;;;;;;;;;;;;;;;;;;5134715;28;19931;-74
2021/03/10 06:07:54;;;;;;;;;;;;;;;;;;5134743;28;19924;-75
2021/03/10 06:10:21;;;;;;;;;;;;;;;;;;5134687;28;19930;-74
2021/03/10 06:12:50;;;;;;;;;;;;;;;;;;5135253;28;19923;-74
2021/03/10 06:15:16;;;;;;;;;;;;;;;;;;5138365;27;20010;-74
2021/03/10 06:17:43;;;;;;;;;;;;;;;;;;5138595;27;19966;-74
2021/03/10 06:20:09;;;;;;;;;;;;;;;;;;5138454;27;19923;-75
2021/03/10 06:22:36;;;;;;;;;;;;;;;;;;5138246;27;19924;-75
2021/03/10 06:25:03;;;;;;;;;;;;;;;;;;5138239;27;19927;-74
2021/03/10 06:27:29;;;;;;;;;;;;;;;;;;5137818;27;19923;-73
2021/03/10 06:29:56;;;;;;;;;;;;;;;;;;5138257;27;19930;-74
2021/03/10 06:32:22;;;;;;;;;;;;;;;;;;5138039;27;19928;-74
2021/03/10 06:34:49;;;;;;;;;;;;;;;;;;5138085;27;19927;-74
2021/03/10 06:37:16;;;;;;;;;;;;;;;;;;5137989;27;19931;-75
2021/03/10 06:39:42;;;;;;;;;;;;;;;;;;5119872;27;19928;-74
2021/03/10 06:42:09;;;;;;;;;;;;;;;;;;5137980;27;19930;-74
2021/03/10 06:44:36;;;;;;;;;;;;;;;;;;5138142;27;19976;-74
2021/03/10 06:47:02;;;;;;;;;;;;;;;;;;5138011;27;19928;-74
2021/03/10 06:49:29;;;;;;;;;;;;;;;;;;5137762;27;20465;-74
2021/03/10 06:51:56;;;;;;;;;;;;;;;;;;5137720;27;19924;-75
2021/03/10 06:54:23;;;;;;;;;;;;;;;;;;5137646;27;19935;-75
2021/03/10 06:56:49;;;;;;;;;;;;;;;;;;5137881;27;20036;-75
2021/03/10 06:59:16;;;;;;;;;;;;;;;;;;5138154;27;19931;-75
2021/03/10 07:01:42;;;;;;;;;;;;;;;;;;5137869;27;20005;-75
2021/03/10 07:04:09;;;;;;;;;;;;;;;;;;5137365;27;20357;-74
2021/03/10 07:06:36;;;;;;;;;;;;;;;;;;5137722;27;19978;-75
2021/03/10 07:09:02;;;;;;;;;;;;;;;;;;5137283;27;20312;-75
2021/03/10 07:11:29;;;;;;;;;;;;;;;;;;5137516;27;19935;-75
2021/03/10 07:13:56;;;;;;;;;;;;;;;;;;5137455;27;19924;-74
2021/03/10 07:16:22;;;;;;;;;;;;;;;;;;5137607;27;19928;-75
2021/03/10 07:18:49;;;;;;;;;;;;;;;;;;5137434;27;19927;-75
2021/03/10 07:21:16;;;;;;;;;;;;;;;;;;5136871;27;19923;-74
2021/03/10 07:23:43;;;;;;;;;;;;;;;;;;5137369;27;20020;-75
2021/03/10 07:26:09;;;;;;;;;;;;;;;;;;5137404;27;19924;-75
2021/03/10 07:28:36;;;;;;;;;;;;;;;;;;5138445;27;19924;-74
2021/03/10 07:31:03;;;;;;;;;;;;;;;;;;5137809;27;20300;-74
2021/03/10 07:33:29;;;;;;;;;;;;;;;;;;5137734;27;19970;-74
2021/03/10 07:35:56;;;;;;;;;;;;;;;;;;5137808;27;19923;-74
2021/03/10 07:38:23;;;;;;;;;;;;;;;;;;5137387;27;19934;-74
2021/03/10 07:40:51;;;;;;;;;;;;;;;;;;5137210;27;20285;-74
2021/03/10 07:43:18;;;;;;;;;;;;;;;;;;5137911;27;19923;-75
2021/03/10 07:45:45;;;;;;;;;;;;;;;;;;5137374;27;19929;-74
2021/03/10 07:48:12;;;;;;;;;;;;;;;;;;5137507;27;19923;-73
2021/03/10 07:50:38;;;;;;;;;;;;;;;;;;5137259;27;19929;-74
2021/03/10 07:53:05;;;;;;;;;;;;;;;;;;5136890;27;19923;-74
2021/03/10 07:55:32;;;;;;;;;;;;;;;;;;5136654;27;19923;-74
2021/03/10 07:57:58;;;;;;;;;;;;;;;;;;5136980;27;19928;-74
2021/03/10 08:00:25;;;;;;;;;;;;;;;;;;5136822;27;19931;-74
2021/03/10 08:02:52;;;;;;;;;;;;;;;;;;5136966;27;19924;-74
2021/03/10 08:05:19;;;;;;;;;;;;;;;;;;5137195;27;20007;-73
2021/03/10 08:07:45;;;;;;;;;;;;;;;;;;5136348;27;19931;-74
2021/03/10 08:10:12;;;;;;;;;;;;;;;;;;5136842;27;20361;-74
2021/03/10 08:12:39;;;;;;;;;;;;;;;;;;5118379;27;19946;-74
2021/03/10 08:15:06;;;;;;;;;;;;;;;;;;5136815;27;19923;-74
2021/03/10 08:17:33;;;;;;;;;;;;;;;;;;5136402;27;19974;-74
2021/03/10 08:20:00;;;;;;;;;;;;;;;;;;5136509;27;19923;-74
2021/03/10 08:22:26;;;;;;;;;;;;;;;;;;5136523;27;19923;-73
2021/03/10 08:24:53;;;;;;;;;;;;;;;;;;5136403;27;19928;-73
2021/03/10 08:27:20;;;;;;;;;;;;;;;;;;5135544;27;20318;-74
2021/03/10 08:29:46;;;;;;;;;;;;;;;;;;5136010;27;19930;-73
2021/03/10 08:32:13;;;;;;;;;;;;;;;;;;5135896;27;19927;-74
2021/03/10 08:34:39;;;;;;;;;;;;;;;;;;5136098;27;20022;-73
2021/03/10 08:37:06;;;;;;;;;;;;;;;;;;5135582;27;19924;-74
2021/03/10 08:39:32;;;;;;;;;;;;;;;;;;5136507;27;20445;-74
2021/03/10 08:41:59;;;;;;;;;;;;;;;;;;5136252;27;19931;-72
2021/03/10 08:44:26;;;;;;;;;;;;;;;;;;5136768;27;19923;-73
2021/03/10 08:46:53;;;;;;;;;;;;;;;;;;5136733;27;19934;-73
2021/03/10 08:49:19;;;;;;;;;;;;;;;;;;5136134;27;19930;-73
2021/03/10 08:51:46;;;;;;;;;;;;;;;;;;5136362;27;19923;-73
2021/03/10 08:54:13;;;;;;;;;;;;;;;;;;5135909;27;20429;-74
2021/03/10 08:56:39;;;;;;;;;;;;;;;;;;5136728;27;19923;-74
2021/03/10 08:59:07;;;;;;;;;;;;;;;;;;5117232;27;19965;-74
2021/03/10 09:01:33;;;;;;;;;;;;;;;;;;5135874;27;20381;-74
2021/03/10 09:04:00;;;;;;;;;;;;;;;;;;5136398;27;19930;-74
2021/03/10 09:06:26;;;;;;;;;;;;;;;;;;5137147;27;19930;-74
2021/03/10 09:08:53;;;;;;;;;;;;;;;;;;5137681;27;19928;-74
2021/03/10 09:11:22;;;;;;;;;;;;;;;;;;5137755;27;19976;-74
2021/03/10 09:13:49;;;;;;;;;;;;;;;;;;5137105;27;19978;-74
2021/03/10 09:16:15;;;;;;;;;;;;;;;;;;5136853;27;19923;-74
2021/03/10 09:18:42;;;;;;;;;;;;;;;;;;5117360;28;19991;-74
2021/03/10 09:21:09;;;;;;;;;;;;;;;;;;5135313;27;19976;-74
2021/03/10 09:23:35;;;;;;;;;;;;;;;;;;5135603;27;19923;-74
2021/03/10 09:26:02;;;;;;;;;;;;;;;;;;5135590;27;19929;-74
2021/03/10 09:28:29;;;;;;;;;;;;;;;;;;5134919;28;19923;-74
2021/03/10 09:30:55;;;;;;;;;;;;;;;;;;5135681;28;19992;-74
2021/03/10 09:33:22;;;;;;;;;;;;;;;;;;5135097;28;19928;-73
2021/03/10 09:35:48;;;;;;;;;;;;;;;;;;5135319;28;20373;-74
2021/03/10 09:38:15;;;;;;;;;;;;;;;;;;5135103;28;19931;-73
2021/03/10 09:40:42;;;;;;;;;;;;;;;;;;5135458;28;19930;-74
2021/03/10 09:43:08;;;;;;;;;;;;;;;;;;5135529;28;19947;-74
2021/03/10 09:45:35;;;;;;;;;;;;;;;;;;5134963;28;19924;-73
2021/03/10 09:48:01;;;;;;;;;;;;;;;;;;5134674;27;19924;-74
2021/03/10 09:50:28;;;;;;;;;;;;;;;;;;5138134;27;19923;-73
2021/03/10 09:52:55;;;;;;;;;;;;;;;;;;5138901;27;19924;-74
2021/03/10 09:55:21;;;;;;;;;;;;;;;;;;5139111;27;19930;-74
2021/03/10 09:57:48;;;;;;;;;;;;;;;;;;5139147;27;20285;-74
2021/03/10 10:00:15;;;;;;;;;;;;;;;;;;5139043;27;20009;-74
2021/03/10 10:02:41;;;;;;;;;;;;;;;;;;5139003;27;19931;-74
2021/03/10 10:05:08;;;;;;;;;;;;;;;;;;5138816;27;19924;-74
2021/03/10 10:07:34;;;;;;;;;;;;;;;;;;5138565;27;19923;-73
2021/03/10 10:10:01;;;;;;;;;;;;;;;;;;5138560;27;19923;-74
2021/03/10 10:12:27;;;;;;;;;;;;;;;;;;5138396;27;19934;-74
2021/03/10 10:14:54;;;;;;;;;;;;;;;;;;5138903;27;19927;-74
2021/03/10 10:17:21;;;;;;;;;;;;;;;;;;5138527;27;19924;-74
2021/03/10 10:19:47;;;;;;;;;;;;;;;;;;5138483;27;19923;-74
2021/03/10 10:22:14;;;;;;;;;;;;;;;;;;5137836;27;19923;-74
2021/03/10 10:24:40;;;;;;;;;;;;;;;;;;5138708;27;19992;-74
2021/03/10 10:27:07;;;;;;;;;;;;;;;;;;5138196;27;19930;-74
2021/03/10 10:29:34;;;;;;;;;;;;;;;;;;5138175;27;19930;-74
2021/03/10 10:32:00;;;;;;;;;;;;;;;;;;5120097;27;19923;-74
2021/03/10 10:34:28;;;;;;;;;;;;;;;;;;5138957;27;19927;-74
2021/03/10 10:36:54;;;;;;;;;;;;;;;;;;5139155;27;19958;-74
2021/03/10 10:39:21;;;;;;;;;;;;;;;;;;5140156;27;19923;-74
2021/03/10 10:41:48;;;;;;;;;;;;;;;;;;5139204;27;19965;-74
2021/03/10 10:44:14;;;;;;;;;;;;;;;;;;5138182;27;19946;-74
2021/03/10 10:46:41;;;;;;;;;;;;;;;;;;5138631;27;19923;-75
2021/03/10 10:49:08;;;;;;;;;;;;;;;;;;5138683;27;20308;-75
2021/03/10 10:51:35;;;;;;;;;;;;;;;;;;5138471;27;19927;-75
2021/03/10 10:54:02;;;;;;;;;;;;;;;;;;5138759;27;19923;-74
2021/03/10 10:56:28;;;;;;;;;;;;;;;;;;5138902;27;19924;-75
2021/03/10 10:58:55;;;;;;;;;;;;;;;;;;5139049;27;20387;-75
2021/03/10 11:01:22;;;;;;;;;;;;;;;;;;5137768;27;19924;-75
2021/03/10 11:03:49;;;;;;;;;;;;;;;;;;5137844;27;20330;-75
2021/03/10 11:06:15;;;;;;;;;;;;;;;;;;5119498;27;19924;-74
2021/03/10 11:08:42;;;;;;;;;;;;;;;;;;5138069;27;19931;-75
2021/03/10 11:11:09;;;;;;;;;;;;;;;;;;5137818;27;19931;-74
2021/03/10 11:13:35;;;;;;;;;;;;;;;;;;5137433;27;19923;-74
2021/03/10 11:16:04;;;;;;;;;;;;;;;;;;5137770;27;19927;-75
2021/03/10 11:18:31;;;;;;;;;;;;;;;;;;5137550;27;19923;-74
2021/03/10 11:20:57;;;;;;;;;;;;;;;;;;5137643;27;20368;-74
2021/03/10 11:23:24;;;;;;;;;;;;;;;;;;5119236;27;20281;-75
2021/03/10 11:25:51;;;;;;;;;;;;;;;;;;5137677;27;19978;-75
2021/03/10 11:28:17;;;;;;;;;;;;;;;;;;5137424;27;19947;-74
2021/03/10 11:30:46;;;;;;;;;;;;;;;;;;5137350;27;20292;-74
2021/03/10 11:33:13;;;;;;;;;;;;;;;;;;5137230;27;20388;-74
2021/03/10 11:35:39;;;;;;;;;;;;;;;;;;5137329;27;19923;-74
2021/03/10 11:38:06;;;;;;;;;;;;;;;;;;5137224;27;19930;-75
2021/03/10 11:40:33;;;;;;;;;;;;;;;;;;5137283;27;19927;-74
2021/03/10 11:43:04;;;;;;;;;;;;;;;;;;5137715;27;19923;-74
2021/03/10 11:45:31;;;;;;;;;;;;;;;;;;5137378;27;19923;-75
2021/03/10 11:47:59;;;;;;;;;;;;;;;;;;5137770;27;20373;-74
2021/03/10 11:50:26;;;;;;;;;;;;;;;;;;5138664;27;20392;-74
2021/03/10 11:52:52;;;;;;;;;;;;;;;;;;5137769;27;19928;-74
2021/03/10 11:55:19;;;;;;;;;;;;;;;;;;5137189;27;20368;-76
2021/03/10 11:57:48;;;;;;;;;;;;;;;;;;5139046;27;19931;-74
2021/03/10 12:00:16;;;;;;;;;;;;;;;;;;5137252;27;19924;-75
2021/03/10 12:02:42;;;;;;;;;;;;;;;;;;5138163;27;20497;-76
2021/03/10 12:05:09;;;;;;;;;;;;;;;;;;5137742;27;19923;-76
2021/03/10 12:07:36;;;;;;;;;;;;;;;;;;5137390;27;19927;-75
2021/03/10 12:10:02;;;;;;;;;;;;;;;;;;5137495;27;19923;-74
2021/03/10 12:12:29;;;;;;;;;;;;;;;;;;5135553;27;19971;-73
2021/03/10 12:14:55;;;;;;;;;;;;;;;;;;5137137;27;19923;-74
2021/03/10 12:17:22;;;;;;;;;;;;;;;;;;5136920;27;19927;-74
2021/03/10 12:19:49;;;;;;;;;;;;;;;;;;5118316;27;20330;-74
2021/03/10 12:22:15;;;;;;;;;;;;;;;;;;5136361;27;20023;-73
2021/03/10 12:24:44;;;;;;;;;;;;;;;;;;5136929;27;19923;-74
2021/03/10 12:27:11;;;;;;;;;;;;;;;;;;5136398;27;20408;-75
2021/03/10 12:29:38;;;;;;;;;;;;;;;;;;5136657;27;20277;-73
2021/03/10 12:32:04;;;;;;;;;;;;;;;;;;5136689;27;19923;-74
2021/03/10 12:34:31;;;;;;;;;;;;;;;;;;5136203;27;19979;-74
2021/03/10 12:36:58;;;;;;;;;;;;;;;;;;5136059;27;19923;-74
2021/03/10 12:39:25;;;;;;;;;;;;;;;;;;5136312;27;19966;-74
2021/03/10 12:41:51;;;;;;;;;;;;;;;;;;5136035;27;19923;-74
2021/03/10 12:44:18;;;;;;;;;;;;;;;;;;5135934;27;19976;-74
2021/03/10 12:46:46;;;;;;;;;;;;;;;;;;5135858;27;19930;-74
2021/03/10 12:49:13;;;;;;;;;;;;;;;;;;5135567;27;20360;-73
2021/03/10 12:51:40;;;;;;;;;;;;;;;;;;5135715;27;19937;-74
2021/03/10 12:54:06;;;;;;;;;;;;;;;;;;5117730;27;19924;-74
2021/03/10 12:56:33;;;;;;;;;;;;;;;;;;5135827;27;19950;-74
2021/03/10 12:59:00;;;;;;;;;;;;;;;;;;5135653;27;19924;-74
2021/03/10 13:01:26;;;;;;;;;;;;;;;;;;5136584;27;20229;-74
2021/03/10 13:03:53;;;;;;;;;;;;;;;;;;5135987;27;19927;-74
2021/03/10 13:06:20;;;;;;;;;;;;;;;;;;5135763;27;19924;-74
2021/03/10 13:08:46;;;;;;;;;;;;;;;;;;5135929;27;20384;-74
2021/03/10 13:11:13;;;;;;;;;;;;;;;;;;5135360;27;19928;-74
2021/03/10 13:13:39;;;;;;;;;;;;;;;;;;5135526;27;19924;-74
2021/03/10 13:16:06;;;;;;;;;;;;;;;;;;5135710;27;20270;-74
2021/03/10 13:18:33;;;;;;;;;;;;;;;;;;5133712;27;20000;-77
2021/03/10 13:20:59;;;;;;;;;;;;;;;;;;5135403;27;19923;-76
2021/03/10 13:23:26;;;;;;;;;;;;;;;;;;5135232;27;19924;-77
2021/03/10 13:25:52;;;;;;;;;;;;;;;;;;5117052;28;19928;-77
2021/03/10 13:28:19;;;;;;;;;;;;;;;;;;5133882;27;20379;-77
2021/03/10 13:30:46;;;;;;;;;;;;;;;;;;5116891;28;19923;-76
2021/03/10 13:33:12;;;;;;;;;;;;;;;;;;5135041;28;20373;-73
2021/03/10 13:35:40;;;;;;;;;;;;;;;;;;5135027;28;20368;-73
2021/03/10 13:38:07;;;;;;;;;;;;;;;;;;5135329;28;19931;-73
2021/03/10 13:40:34;;;;;;;;;;;;;;;;;;5135241;28;19953;-75
2021/03/10 13:43:00;;;;;;;;;;;;;;;;;;5134871;28;19938;-75
2021/03/10 13:45:27;;;;;;;;;;;;;;;;;;5135109;28;20269;-74
2021/03/10 13:47:53;;;;;;;;;;;;;;;;;;5116307;28;19928;-74
2021/03/10 13:50:20;;;;;;;;;;;;;;;;;;5134720;28;20262;-74
2021/03/10 13:52:47;;;;;;;;;;;;;;;;;;5135513;28;20300;-74
2021/03/10 13:55:13;;;;;;;;;;;;;;;;;;5135376;28;19927;-74
2021/03/10 13:57:40;;;;;;;;;;;;;;;;;;5134627;28;19923;-75
2021/03/10 14:00:07;;;;;;;;;;;;;;;;;;5134933;28;19924;-76
2021/03/10 14:02:33;;;;;;;;;;;;;;;;;;5134955;28;19980;-74
2021/03/10 14:05:00;;;;;;;;;;;;;;;;;;5135226;28;19946;-75
2021/03/10 14:07:26;;;;;;;;;;;;;;;;;;5134762;28;20284;-75
2021/03/10 14:09:55;;;;;;;;;;;;;;;;;;5134551;28;19927;-75
2021/03/10 14:12:21;;;;;;;;;;;;;;;;;;5134880;28;19935;-74
2021/03/10 14:14:48;;;;;;;;;;;;;;;;;;5135608;28;19984;-74
2021/03/10 14:17:15;;;;;;;;;;;;;;;;;;5134578;28;19923;-74
2021/03/10 14:19:41;;;;;;;;;;;;;;;;;;5134737;28;19923;-75
2021/03/10 14:22:11;;;;;;;;;;;;;;;;;;5134552;28;20022;-73
2021/03/10 14:24:38;;;;;;;;;;;;;;;;;;5134444;28;19923;-74
2021/03/10 14:27:04;;;;;;;;;;;;;;;;;;5115870;28;19923;-74
2021/03/10 14:29:31;;;;;;;;;;;;;;;;;;5134320;28;19931;-74
2021/03/10 14:31:58;;;;;;;;;;;;;;;;;;5134434;28;20329;-74
2021/03/10 14:34:24;;;;;;;;;;;;;;;;;;5134323;27;19923;-74
2021/03/10 14:36:51;;;;;;;;;;;;;;;;;;5137973;27;19924;-74
2021/03/10 14:39:17;;;;;;;;;;;;;;;;;;5120171;27;20311;-74
2021/03/10 14:41:44;;;;;;;;;;;;;;;;;;5138243;27;20289;-74
2021/03/10 14:44:11;;;;;;;;;;;;;;;;;;5136439;27;20368;-75
2021/03/10 14:46:37;;;;;;;;;;;;;;;;;;5137894;27;19927;-75
2021/03/10 14:49:04;;;;;;;;;;;;;;;;;;5138039;27;19930;-74
2021/03/10 14:51:30;;;;;;;;;;;;;;;;;;5137796;27;19930;-74
2021/03/10 14:53:57;;;;;;;;;;;;;;;;;;5138168;27;19930;-73
2021/03/10 14:56:24;;;;;;;;;;;;;;;;;;5137572;27;19923;-74
2021/03/10 14:58:50;;;;;;;;;;;;;;;;;;5136777;27;19930;-74
2021/03/10 15:01:17;;;;;;;;;;;;;;;;;;5137596;27;19923;-74
2021/03/10 15:03:44;;;;;;;;;;;;;;;;;;5137940;27;19934;-74
2021/03/10 15:06:10;;;;;;;;;;;;;;;;;;5119513;27;19930;-74
2021/03/10 15:08:37;;;;;;;;;;;;;;;;;;5138582;27;19923;-74
2021/03/10 15:11:03;;;;;;;;;;;;;;;;;;5139591;27;19997;-74
2021/03/10 15:13:30;;;;;;;;;;;;;;;;;;5140525;27;19984;-74
2021/03/10 15:15:57;;;;;;;;;;;;;;;;;;5139119;27;19923;-74
2021/03/10 15:18:23;;;;;;;;;;;;;;;;;;5137951;27;19928;-74
2021/03/10 15:20:50;;;;;;;;;;;;;;;;;;5137462;27;19923;-74
2021/03/10 15:23:21;;;;;;;;;;;;;;;;;;5137487;27;20377;-74
2021/03/10 15:25:47;;;;;;;;;;;;;;;;;;5137543;27;19931;-74
2021/03/10 15:28:14;;;;;;;;;;;;;;;;;;5118731;27;19927;-74
2021/03/10 15:30:40;;;;;;;;;;;;;;;;;;5136828;27;20368;-75
2021/03/10 15:33:07;;;;;;;;;;;;;;;;;;5137012;27;19946;-75
2021/03/10 15:35:34;;;;;;;;;;;;;;;;;;5137376;27;19927;-74
2021/03/10 15:38:01;;;;;;;;;;;;;;;;;;5137532;27;19923;-75
2021/03/10 15:40:27;;;;;;;;;;;;;;;;;;5137790;27;19923;-76
2021/03/10 15:42:54;;;;;;;;;;;;;;;;;;5137159;27;19923;-76
2021/03/10 15:45:21;;;;;;;;;;;;;;;;;;5136730;27;19924;-76
2021/03/10 15:47:47;;;;;;;;;;;;;;;;;;5136957;27;19968;-75
2021/03/10 15:50:14;;;;;;;;;;;;;;;;;;5136988;27;19923;-76
2021/03/10 15:52:40;;;;;;;;;;;;;;;;;;5135733;27;19923;-74
2021/03/10 15:55:07;;;;;;;;;;;;;;;;;;5136260;27;19923;-74
2021/03/10 15:57:34;;;;;;;;;;;;;;;;;;5136373;27;19934;-74
2021/03/10 16:00:00;;;;;;;;;;;;;;;;;;5136655;27;19930;-74
2021/03/10 16:02:27;;;;;;;;;;;;;;;;;;5136437;27;19923;-74
2021/03/10 16:04:54;;;;;;;;;;;;;;;;;;5136393;27;19935;-74
2021/03/10 16:07:20;;;;;;;;;;;;;;;;;;5136469;27;19923;-74
2021/03/10 16:09:47;;;;;;;;;;;;;;;;;;5118475;27;19972;-75
2021/03/10 16:12:14;;;;;;;;;;;;;;;;;;5136345;27;20385;-75
2021/03/10 16:14:40;;;;;;;;;;;;;;;;;;5136488;27;19946;-75
2021/03/10 16:17:07;;;;;;;;;;;;;;;;;;5136510;27;19924;-74
2021/03/10 16:19:34;;;;;;;;;;;;;;;;;;5136290;27;19934;-75
2021/03/10 16:22:00;;;;;;;;;;;;;;;;;;5136012;27;19923;-74
2021/03/10 16:24:27;;;;;;;;;;;;;;;;;;5136043;27;19930;-74
2021/03/10 16:26:53;;;;;;;;;;;;;;;;;;5135944;27;19934;-74
2021/03/10 16:29:20;;;;;;;;;;;;;;;;;;5135780;27;19923;-75
2021/03/10 16:31:47;;;;;;;;;;;;;;;;;;5136246;27;19923;-75
2021/03/10 16:34:13;;;;;;;;;;;;;;;;;;5136238;27;19927;-74
2021/03/10 16:36:50;;;;;;;;;;;;;;;;;;5135972;27;20369;-74
2021/03/10 16:39:17;;;;;;;;;;;;;;;;;;5136020;27;19931;-75
2021/03/10 16:41:44;;;;;;;;;;;;;;;;;;5135860;27;19935;-75
2021/03/10 16:44:10;;;;;;;;;;;;;;;;;;5117429;27;19923;-75
2021/03/10 16:46:37;;;;;;;;;;;;;;;;;;5135919;27;19924;-74
2021/03/10 16:49:04;;;;;;;;;;;;;;;;;;5135730;27;19928;-74